sensor_id;sensor_type;location;lat;lon;timestamp;pressure;altitude;pressure_sealevel;temperature;humidity
69187;BME280;56301;56.864;60.554;2023-02-13T00:00:11;98920.44;;;24.44;26.24
69187;BME280;56301;56.864;60.554;2023-02-13T00:02:33;98921.78;;;24.40;25.17
69187;BME280;56301;56.864;60.554;2023-02-13T00:04:56;98916.72;;;24.37;25.82
69187;BME280;56301;56.864;60.554;2023-02-13T00:07:18;98919.59;;;24.35;25.32
69187;BME280;56301;56.864;60.554;2023-02-13T00:09:41;98902.72;;;24.33;26.10
69187;BME280;56301;56.864;60.554;2023-02-13T00:12:04;98904.53;;;24.33;25.57
69187;BME280;56301;56.864;60.554;2023-02-13T00:14:27;98910.97;;;24.32;25.84
69187;BME280;56301;56.864;60.554;2023-02-13T00:16:50;98896.81;;;24.30;25.77
69187;BME280;56301;56.864;60.554;2023-02-13T00:19:12;98900.16;;;24.32;25.54
69187;BME280;56301;56.864;60.554;2023-02-13T00:21:35;98905.75;;;24.30;25.66
69187;BME280;56301;56.864;60.554;2023-02-13T00:23:57;98901.19;;;24.31;25.45
69187;BME280;56301;56.864;60.554;2023-02-13T00:26:19;98899.53;;;24.30;25.63
69187;BME280;56301;56.864;60.554;2023-02-13T00:28:43;98896.81;;;24.30;25.18
69187;BME280;56301;56.864;60.554;2023-02-13T00:31:07;98896.81;;;24.30;25.40
69187;BME280;56301;56.864;60.554;2023-02-13T00:33:29;98891.56;;;24.28;25.10
69187;BME280;56301;56.864;60.554;2023-02-13T00:36:00;98885.31;;;24.27;25.21
69187;BME280;56301;56.864;60.554;2023-02-13T00:38:23;98881.59;;;24.29;25.57
69187;BME280;56301;56.864;60.554;2023-02-13T00:40:45;98884.28;;;24.29;26.51
69187;BME280;56301;56.864;60.554;2023-02-13T00:43:08;98878.53;;;24.32;26.54
69187;BME280;56301;56.864;60.554;2023-02-13T00:45:31;98883.94;;;24.32;26.62
69187;BME280;56301;56.864;60.554;2023-02-13T00:47:53;98879.38;;;24.32;26.60
69187;BME280;56301;56.864;60.554;2023-02-13T00:50:16;98871.44;;;24.31;26.96
69187;BME280;56301;56.864;60.554;2023-02-13T00:52:38;98872.28;;;24.31;26.48
69187;BME280;56301;56.864;60.554;2023-02-13T00:55:01;98866.19;;;24.29;25.50
69187;BME280;56301;56.864;60.554;2023-02-13T00:57:23;98863.69;;;24.27;25.30
69187;BME280;56301;56.864;60.554;2023-02-13T00:59:46;98862.66;;;24.29;25.80
69187;BME280;56301;56.864;60.554;2023-02-13T01:02:09;98861.81;;;24.28;25.00
69187;BME280;56301;56.864;60.554;2023-02-13T01:04:31;98869.94;;;24.28;25.87
69187;BME280;56301;56.864;60.554;2023-02-13T01:06:54;98868.75;;;24.31;26.30
69187;BME280;56301;56.864;60.554;2023-02-13T01:09:16;98868.75;;;24.31;25.38
69187;BME280;56301;56.864;60.554;2023-02-13T01:11:39;98871.59;;;24.29;25.37
69187;BME280;56301;56.864;60.554;2023-02-13T01:14:02;98873.47;;;24.29;25.44
69187;BME280;56301;56.864;60.554;2023-02-13T01:16:24;98877.22;;;24.27;25.24
69187;BME280;56301;56.864;60.554;2023-02-13T01:18:47;98884.28;;;24.29;25.39
69187;BME280;56301;56.864;60.554;2023-02-13T01:21:14;98894.28;;;24.28;25.45
69187;BME280;56301;56.864;60.554;2023-02-13T01:23:37;98887.47;;;24.32;25.96
69187;BME280;56301;56.864;60.554;2023-02-13T01:26:02;98888.69;;;24.30;25.08
69187;BME280;56301;56.864;60.554;2023-02-13T01:28:25;98883.81;;;24.25;24.85
69187;BME280;56301;56.864;60.554;2023-02-13T01:30:52;98879.63;;;24.22;26.08
69187;BME280;56301;56.864;60.554;2023-02-13T01:33:14;98884.53;;;24.19;25.12
69187;BME280;56301;56.864;60.554;2023-02-13T01:35:40;98891.28;;;24.23;25.80
69187;BME280;56301;56.864;60.554;2023-02-13T01:38:04;98883.44;;;24.28;26.14
69187;BME280;56301;56.864;60.554;2023-02-13T01:40:27;98884.44;;;24.35;26.54
69187;BME280;56301;56.864;60.554;2023-02-13T01:42:50;98886.63;;;24.40;25.80
69187;BME280;56301;56.864;60.554;2023-02-13T01:45:24;98882.56;;;24.44;24.97
69187;BME280;56301;56.864;60.554;2023-02-13T01:47:48;98877.16;;;24.44;24.91
69187;BME280;56301;56.864;60.554;2023-02-13T01:52:43;98882.19;;;24.47;24.71
69187;BME280;56301;56.864;60.554;2023-02-13T01:55:08;98879.47;;;24.47;24.38
69187;BME280;56301;56.864;60.554;2023-02-13T01:57:32;98878.47;;;24.48;23.96
69187;BME280;56301;56.864;60.554;2023-02-13T02:00:03;98879.31;;;24.48;24.25
69187;BME280;56301;56.864;60.554;2023-02-13T02:02:43;98881.19;;;24.48;24.11
69187;BME280;56301;56.864;60.554;2023-02-13T02:05:06;98885.56;;;24.49;23.63
69187;BME280;56301;56.864;60.554;2023-02-13T02:07:30;98877.44;;;24.49;23.65
69187;BME280;56301;56.864;60.554;2023-02-13T02:09:58;98883.69;;;24.49;24.13
69187;BME280;56301;56.864;60.554;2023-02-13T02:14:51;98888.81;;;24.44;22.89
69187;BME280;56301;56.864;60.554;2023-02-13T02:17:16;98872.41;;;24.38;22.14
69187;BME280;56301;56.864;60.554;2023-02-13T02:24:37;98877.22;;;24.27;23.86
69187;BME280;56301;56.864;60.554;2023-02-13T02:27:49;98882.97;;;24.24;24.18
69187;BME280;56301;56.864;60.554;2023-02-13T02:32:33;98874.69;;;24.26;25.18
69187;BME280;56301;56.864;60.554;2023-02-13T02:35:08;98871.81;;;24.27;25.20
69187;BME280;56301;56.864;60.554;2023-02-13T02:42:44;98875.53;;;24.26;25.28
69187;BME280;56301;56.864;60.554;2023-02-13T02:45:15;98870.97;;;24.27;25.39
69187;BME280;56301;56.864;60.554;2023-02-13T02:47:43;98870.13;;;24.26;25.36
69187;BME280;56301;56.864;60.554;2023-02-13T02:52:51;98873.81;;;24.25;25.35
69187;BME280;56301;56.864;60.554;2023-02-13T02:55:22;98888.03;;;24.27;25.83
69187;BME280;56301;56.864;60.554;2023-02-13T03:00:25;98887.66;;;24.31;26.37
69187;BME280;56301;56.864;60.554;2023-02-13T03:02:49;98879.56;;;24.31;26.12
69187;BME280;56301;56.864;60.554;2023-02-13T03:05:16;98884.44;;;24.35;26.11
69187;BME280;56301;56.864;60.554;2023-02-13T03:07:40;98882.41;;;24.37;25.87
69187;BME280;56301;56.864;60.554;2023-02-13T03:10:07;98885.25;;;24.36;25.85
69187;BME280;56301;56.864;60.554;2023-02-13T03:12:32;98880.69;;;24.36;26.38
69187;BME280;56301;56.864;60.554;2023-02-13T03:14:57;98884.44;;;24.35;26.27
69187;BME280;56301;56.864;60.554;2023-02-13T03:17:20;98881.56;;;24.37;26.36
69187;BME280;56301;56.864;60.554;2023-02-13T03:22:07;98881.56;;;24.37;26.05
69187;BME280;56301;56.864;60.554;2023-02-13T03:29:48;98873.81;;;24.34;26.26
69187;BME280;56301;56.864;60.554;2023-02-13T03:32:27;98881.91;;;24.34;26.69
69187;BME280;56301;56.864;60.554;2023-02-13T03:35:02;98871.75;;;24.36;25.86
69187;BME280;56301;56.864;60.554;2023-02-13T03:37:33;98880.53;;;24.38;25.79
69187;BME280;56301;56.864;60.554;2023-02-13T03:42:22;98877.34;;;24.34;26.24
69187;BME280;56301;56.864;60.554;2023-02-13T03:44:52;98875.66;;;24.33;26.55
69187;BME280;56301;56.864;60.554;2023-02-13T03:47:16;98873.59;;;24.35;26.55
69187;BME280;56301;56.864;60.554;2023-02-13T03:49:40;98869.88;;;24.36;26.07
69187;BME280;56301;56.864;60.554;2023-02-13T03:52:06;98880.22;;;24.41;26.67
69187;BME280;56301;56.864;60.554;2023-02-13T03:56:55;98869.22;;;24.34;27.13
69187;BME280;56301;56.864;60.554;2023-02-13T03:59:22;98867.81;;;24.46;27.06
69187;BME280;56301;56.864;60.554;2023-02-13T04:01:49;98868.16;;;24.43;27.20
69187;BME280;56301;56.864;60.554;2023-02-13T04:06:55;98860.94;;;24.44;26.29
69187;BME280;56301;56.864;60.554;2023-02-13T04:09:19;98869.56;;;24.39;27.22
69187;BME280;56301;56.864;60.554;2023-02-13T04:14:24;98857.53;;;24.42;26.13
69187;BME280;56301;56.864;60.554;2023-02-13T04:16:50;98849.44;;;24.42;26.39
69187;BME280;56301;56.864;60.554;2023-02-13T04:19:14;98851.47;;;24.40;26.06
69187;BME280;56301;56.864;60.554;2023-02-13T04:21:37;98845.53;;;24.44;25.88
69187;BME280;56301;56.864;60.554;2023-02-13T04:24:00;98849.06;;;24.45;26.20
69187;BME280;56301;56.864;60.554;2023-02-13T04:26:22;98854.66;;;24.43;26.29
69187;BME280;56301;56.864;60.554;2023-02-13T04:28:45;98856.34;;;24.44;26.64
69187;BME280;56301;56.864;60.554;2023-02-13T04:31:08;98851.78;;;24.45;26.54
69187;BME280;56301;56.864;60.554;2023-02-13T04:33:30;98846.38;;;24.45;26.33
69187;BME280;56301;56.864;60.554;2023-02-13T04:35:52;98851.78;;;24.45;26.93
69187;BME280;56301;56.864;60.554;2023-02-13T04:38:15;98850.75;;;24.46;26.59
69187;BME280;56301;56.864;60.554;2023-02-13T04:40:37;98844.31;;;24.47;26.66
69187;BME280;56301;56.864;60.554;2023-02-13T04:43:00;98846.03;;;24.48;26.83
69187;BME280;56301;56.864;60.554;2023-02-13T04:45:23;98849.56;;;24.48;26.27
69187;BME280;56301;56.864;60.554;2023-02-13T04:47:50;98853.94;;;24.49;26.57
69187;BME280;56301;56.864;60.554;2023-02-13T04:50:12;98849.38;;;24.50;26.97
69187;BME280;56301;56.864;60.554;2023-02-13T04:52:35;98845.66;;;24.51;26.80
69187;BME280;56301;56.864;60.554;2023-02-13T04:54:57;98854.44;;;24.53;26.28
69187;BME280;56301;56.864;60.554;2023-02-13T04:57:20;98842.97;;;24.51;26.81
69187;BME280;56301;56.864;60.554;2023-02-13T04:59:42;98840.91;;;24.53;26.64
69187;BME280;56301;56.864;60.554;2023-02-13T05:02:05;98841.56;;;24.55;26.39
69187;BME280;56301;56.864;60.554;2023-02-13T05:04:28;98839.72;;;24.56;26.42
69187;BME280;56301;56.864;60.554;2023-02-13T05:06:50;98830.75;;;24.55;26.91
69187;BME280;56301;56.864;60.554;2023-02-13T05:09:13;98834.28;;;24.56;26.42
69187;BME280;56301;56.864;60.554;2023-02-13T05:11:35;98834.09;;;24.57;26.53
69187;BME280;56301;56.864;60.554;2023-02-13T05:13:58;98846.31;;;24.53;27.36
69187;BME280;56301;56.864;60.554;2023-02-13T05:16:20;98843.97;;;24.50;26.78
69187;BME280;56301;56.864;60.554;2023-02-13T05:18:43;98841.25;;;24.50;26.50
69187;BME280;56301;56.864;60.554;2023-02-13T05:21:05;98841.44;;;24.48;26.61
69187;BME280;56301;56.864;60.554;2023-02-13T05:23:28;98842.63;;;24.46;26.38
69187;BME280;56301;56.864;60.554;2023-02-13T05:25:50;98847.22;;;24.45;26.41
69187;BME280;56301;56.864;60.554;2023-02-13T05:28:13;98839.44;;;24.42;26.23
69187;BME280;56301;56.864;60.554;2023-02-13T05:30:35;98838.41;;;24.43;26.24
69187;BME280;56301;56.864;60.554;2023-02-13T05:32:57;98838.63;;;24.42;26.43
69187;BME280;56301;56.864;60.554;2023-02-13T05:35:23;98840.47;;;24.41;26.80
69187;BME280;56301;56.864;60.554;2023-02-13T05:37:46;98835.06;;;24.41;26.15
69187;BME280;56301;56.864;60.554;2023-02-13T05:40:09;98834.25;;;24.41;26.40
69187;BME280;56301;56.864;60.554;2023-02-13T05:42:32;98837.59;;;24.43;26.34
69187;BME280;56301;56.864;60.554;2023-02-13T05:44:54;98833.00;;;24.43;26.23
69187;BME280;56301;56.864;60.554;2023-02-13T05:47:17;98831.34;;;24.42;26.13
69187;BME280;56301;56.864;60.554;2023-02-13T05:49:40;98824.75;;;24.45;26.10
69187;BME280;56301;56.864;60.554;2023-02-13T05:52:02;98828.81;;;24.41;26.37
69187;BME280;56301;56.864;60.554;2023-02-13T05:54:25;98832.38;;;24.41;26.28
69187;BME280;56301;56.864;60.554;2023-02-13T05:56:47;98821.88;;;24.38;25.99
69187;BME280;56301;56.864;60.554;2023-02-13T05:59:10;98831.38;;;24.34;26.15
69187;BME280;56301;56.864;60.554;2023-02-13T06:01:33;98827.84;;;24.34;26.11
69187;BME280;56301;56.864;60.554;2023-02-13T06:03:55;98833.25;;;24.34;26.35
69187;BME280;56301;56.864;60.554;2023-02-13T06:06:18;98820.72;;;24.33;26.10
69187;BME280;56301;56.864;60.554;2023-02-13T06:08:40;98830.69;;;24.32;26.20
69187;BME280;56301;56.864;60.554;2023-02-13T06:11:03;98817.84;;;24.34;25.63
69187;BME280;56301;56.864;60.554;2023-02-13T06:13:26;98822.41;;;24.34;25.69
69187;BME280;56301;56.864;60.554;2023-02-13T06:15:48;98824.56;;;24.38;25.38
69187;BME280;56301;56.864;60.554;2023-02-13T06:18:11;98823.41;;;24.41;26.04
69187;BME280;56301;56.864;60.554;2023-02-13T06:20:34;98824.41;;;24.40;25.28
69187;BME280;56301;56.864;60.554;2023-02-13T06:22:56;98816.97;;;24.42;26.15
69187;BME280;56301;56.864;60.554;2023-02-13T06:25:19;98821.34;;;24.43;25.90
69187;BME280;56301;56.864;60.554;2023-02-13T06:27:41;98816.63;;;24.45;25.20
69187;BME280;56301;56.864;60.554;2023-02-13T06:30:04;98811.03;;;24.46;25.71
69187;BME280;56301;56.864;60.554;2023-02-13T06:32:27;98810.19;;;24.46;25.17
69187;BME280;56301;56.864;60.554;2023-02-13T06:34:49;98804.13;;;24.44;25.21
69187;BME280;56301;56.864;60.554;2023-02-13T06:37:12;98813.25;;;24.43;25.15
69187;BME280;56301;56.864;60.554;2023-02-13T06:39:34;98804.50;;;24.41;25.57
69187;BME280;56301;56.864;60.554;2023-02-13T06:41:57;98806.44;;;24.47;25.73
69187;BME280;56301;56.864;60.554;2023-02-13T06:44:19;98808.38;;;24.61;25.52
69187;BME280;56301;56.864;60.554;2023-02-13T06:46:41;98799.44;;;24.76;26.02
69187;BME280;56301;56.864;60.554;2023-02-13T06:49:04;98796.50;;;24.85;26.18
69187;BME280;56301;56.864;60.554;2023-02-13T06:51:27;98789.22;;;24.86;26.67
69187;BME280;56301;56.864;60.554;2023-02-13T06:53:49;98788.28;;;24.93;25.73
69187;BME280;56301;56.864;60.554;2023-02-13T06:56:12;98788.03;;;25.03;26.23
69187;BME280;56301;56.864;60.554;2023-02-13T06:58:34;98795.13;;;25.04;26.06
69187;BME280;56301;56.864;60.554;2023-02-13T07:00:57;98786.72;;;24.99;25.76
69187;BME280;56301;56.864;60.554;2023-02-13T07:03:19;98789.50;;;24.91;25.88
69187;BME280;56301;56.864;60.554;2023-02-13T07:05:42;98785.66;;;24.85;26.10
69187;BME280;56301;56.864;60.554;2023-02-13T07:08:05;98783.69;;;24.79;26.05
69187;BME280;56301;56.864;60.554;2023-02-13T07:10:27;98783.22;;;24.76;25.83
69187;BME280;56301;56.864;60.554;2023-02-13T07:12:50;98780.69;;;24.74;26.40
69187;BME280;56301;56.864;60.554;2023-02-13T07:15:12;98772.75;;;24.72;26.03
69187;BME280;56301;56.864;60.554;2023-02-13T07:17:35;98765.03;;;24.69;26.53
69187;BME280;56301;56.864;60.554;2023-02-13T07:19:57;98765.66;;;24.71;26.62
69187;BME280;56301;56.864;60.554;2023-02-13T07:22:20;98766.34;;;24.73;26.02
69187;BME280;56301;56.864;60.554;2023-02-13T07:24:42;98767.28;;;24.81;26.28
69187;BME280;56301;56.864;60.554;2023-02-13T07:27:04;98771.88;;;24.95;26.32
69187;BME280;56301;56.864;60.554;2023-02-13T07:29:27;98765.34;;;25.04;26.20
69187;BME280;56301;56.864;60.554;2023-02-13T07:31:50;98765.34;;;25.04;26.36
69187;BME280;56301;56.864;60.554;2023-02-13T07:34:12;98766.00;;;25.06;26.42
69187;BME280;56301;56.864;60.554;2023-02-13T07:36:35;98758.19;;;25.11;26.34
69187;BME280;56301;56.864;60.554;2023-02-13T07:38:58;98755.81;;;25.08;26.50
69187;BME280;56301;56.864;60.554;2023-02-13T07:41:20;98747.88;;;25.07;26.08
69187;BME280;56301;56.864;60.554;2023-02-13T07:43:43;98756.19;;;25.05;26.29
69187;BME280;56301;56.864;60.554;2023-02-13T07:46:05;98759.94;;;25.04;26.55
69187;BME280;56301;56.864;60.554;2023-02-13T07:48:28;98745.34;;;25.05;26.19
69187;BME280;56301;56.864;60.554;2023-02-13T07:50:51;98750.06;;;25.11;25.70
69187;BME280;56301;56.864;60.554;2023-02-13T07:53:13;98744.66;;;25.11;25.66
69187;BME280;56301;56.864;60.554;2023-02-13T07:55:36;98735.78;;;25.17;26.36
69187;BME280;56301;56.864;60.554;2023-02-13T07:57:59;98739.44;;;25.25;26.44
69187;BME280;56301;56.864;60.554;2023-02-13T08:00:21;98729.63;;;25.38;26.35
69187;BME280;56301;56.864;60.554;2023-02-13T08:02:44;98729.94;;;25.65;26.21
69187;BME280;56301;56.864;60.554;2023-02-13T08:05:07;98716.38;;;25.80;25.77
69187;BME280;56301;56.864;60.554;2023-02-13T08:07:29;98714.88;;;25.99;25.29
69187;BME280;56301;56.864;60.554;2023-02-13T08:09:52;98713.38;;;26.11;25.04
69187;BME280;56301;56.864;60.554;2023-02-13T08:12:14;98710.31;;;26.21;26.05
69187;BME280;56301;56.864;60.554;2023-02-13T08:14:37;98710.16;;;26.29;25.26
69187;BME280;56301;56.864;60.554;2023-02-13T08:16:59;98712.09;;;26.35;25.38
69187;BME280;56301;56.864;60.554;2023-02-13T08:19:22;98701.91;;;26.37;25.03
69187;BME280;56301;56.864;60.554;2023-02-13T08:21:44;98704.22;;;26.40;24.87
69187;BME280;56301;56.864;60.554;2023-02-13T08:24:07;98705.91;;;26.41;25.84
69187;BME280;56301;56.864;60.554;2023-02-13T08:26:30;98700.09;;;26.44;25.27
69187;BME280;56301;56.864;60.554;2023-02-13T08:28:53;98707.00;;;26.47;25.97
69187;BME280;56301;56.864;60.554;2023-02-13T08:31:15;98698.31;;;26.51;26.08
69187;BME280;56301;56.864;60.554;2023-02-13T08:33:38;98692.44;;;26.54;24.99
69187;BME280;56301;56.864;60.554;2023-02-13T08:36:04;98699.19;;;26.58;25.00
69187;BME280;56301;56.864;60.554;2023-02-13T08:38:27;98695.22;;;26.61;25.37
69187;BME280;56301;56.864;60.554;2023-02-13T08:40:49;98683.91;;;26.57;24.84
69187;BME280;56301;56.864;60.554;2023-02-13T08:43:12;98686.59;;;26.51;25.97
69187;BME280;56301;56.864;60.554;2023-02-13T08:45:34;98679.09;;;26.53;24.58
69187;BME280;56301;56.864;60.554;2023-02-13T08:47:57;98675.78;;;26.57;24.75
69187;BME280;56301;56.864;60.554;2023-02-13T08:50:20;98677.47;;;26.58;25.14
69187;BME280;56301;56.864;60.554;2023-02-13T08:52:43;98669.06;;;26.53;24.55
69187;BME280;56301;56.864;60.554;2023-02-13T08:55:05;98676.50;;;26.45;24.40
69187;BME280;56301;56.864;60.554;2023-02-13T08:57:27;98670.44;;;26.42;24.77
69187;BME280;56301;56.864;60.554;2023-02-13T08:59:50;98668.53;;;26.43;24.55
69187;BME280;56301;56.864;60.554;2023-02-13T09:02:12;98659.78;;;26.41;24.83
69187;BME280;56301;56.864;60.554;2023-02-13T09:04:35;98656.41;;;26.39;24.78
69187;BME280;56301;56.864;60.554;2023-02-13T09:06:57;98657.63;;;26.30;25.28
69187;BME280;56301;56.864;60.554;2023-02-13T09:09:20;98651.47;;;26.21;24.89
69187;BME280;56301;56.864;60.554;2023-02-13T09:11:42;98647.47;;;26.17;25.28
69187;BME280;56301;56.864;60.554;2023-02-13T09:14:05;98648.72;;;26.14;25.19
69187;BME280;56301;56.864;60.554;2023-02-13T09:16:27;98652.84;;;26.10;25.10
69187;BME280;56301;56.864;60.554;2023-02-13T09:18:50;98652.59;;;26.05;25.59
69187;BME280;56301;56.864;60.554;2023-02-13T09:21:12;98630.66;;;26.00;25.12
69187;BME280;56301;56.864;60.554;2023-02-13T09:23:36;98632.28;;;25.95;26.13
69187;BME280;56301;56.864;60.554;2023-02-13T09:26:01;98630.16;;;25.90;26.24
69187;BME280;56301;56.864;60.554;2023-02-13T09:28:23;98630.94;;;25.84;26.10
69187;BME280;56301;56.864;60.554;2023-02-13T09:30:46;98632.53;;;25.78;25.97
69187;BME280;56301;56.864;60.554;2023-02-13T09:33:09;98624.94;;;25.74;25.42
69187;BME280;56301;56.864;60.554;2023-02-13T09:35:32;98635.53;;;25.68;25.82
69187;BME280;56301;56.864;60.554;2023-02-13T09:37:54;98623.22;;;25.66;25.67
69187;BME280;56301;56.864;60.554;2023-02-13T09:40:19;98620.50;;;25.66;25.73
69187;BME280;56301;56.864;60.554;2023-02-13T09:42:43;98621.53;;;25.65;25.52
69187;BME280;56301;56.864;60.554;2023-02-13T09:45:07;98616.97;;;25.65;25.78
69187;BME280;56301;56.864;60.554;2023-02-13T09:47:34;98614.00;;;25.60;25.67
69187;BME280;56301;56.864;60.554;2023-02-13T09:49:59;98612.06;;;25.54;25.63
69187;BME280;56301;56.864;60.554;2023-02-13T09:52:24;98611.84;;;25.56;26.04
69187;BME280;56301;56.864;60.554;2023-02-13T09:54:47;98601.59;;;25.51;26.20
69187;BME280;56301;56.864;60.554;2023-02-13T10:00:01;98599.66;;;25.45;25.73
69187;BME280;56301;56.864;60.554;2023-02-13T10:07:44;98606.94;;;25.44;25.62
69187;BME280;56301;56.864;60.554;2023-02-13T10:17:43;98597.91;;;25.37;25.36
69187;BME280;56301;56.864;60.554;2023-02-13T10:20:24;98593.72;;;25.35;25.67
69187;BME280;56301;56.864;60.554;2023-02-13T10:22:50;98586.16;;;25.30;25.95
69187;BME280;56301;56.864;60.554;2023-02-13T10:27:38;98588.16;;;25.21;25.82
69187;BME280;56301;56.864;60.554;2023-02-13T10:32:28;98593.88;;;25.12;25.20
69187;BME280;56301;56.864;60.554;2023-02-13T10:34:51;98590.50;;;25.10;25.24
69187;BME280;56301;56.864;60.554;2023-02-13T10:37:20;98585.47;;;25.07;25.93
69187;BME280;56301;56.864;60.554;2023-02-13T10:39:43;98585.00;;;25.03;25.75
69187;BME280;56301;56.864;60.554;2023-02-13T10:57:09;98605.28;;;24.78;26.12
69187;BME280;56301;56.864;60.554;2023-02-13T11:04:36;98600.00;;;24.69;26.29
69187;BME280;56301;56.864;60.554;2023-02-13T11:06:59;98597.66;;;24.66;26.10
69187;BME280;56301;56.864;60.554;2023-02-13T11:09:22;98600.72;;;24.63;25.77
69187;BME280;56301;56.864;60.554;2023-02-13T11:11:44;98603.59;;;24.62;25.95
69187;BME280;56301;56.864;60.554;2023-02-13T11:14:08;98594.66;;;24.61;26.10
69187;BME280;56301;56.864;60.554;2023-02-13T11:16:36;98592.31;;;24.58;26.16
69187;BME280;56301;56.864;60.554;2023-02-13T11:18:59;98594.75;;;24.53;26.03
69187;BME280;56301;56.864;60.554;2023-02-13T11:21:22;98597.25;;;24.55;26.00
69187;BME280;56301;56.864;60.554;2023-02-13T11:23:53;98595.78;;;24.52;26.25
69187;BME280;56301;56.864;60.554;2023-02-13T11:26:20;98598.84;;;24.49;25.78
69187;BME280;56301;56.864;60.554;2023-02-13T11:28:46;98603.44;;;24.48;25.82
69187;BME280;56301;56.864;60.554;2023-02-13T11:33:32;98604.63;;;24.46;25.95
69187;BME280;56301;56.864;60.554;2023-02-13T11:36:05;98597.91;;;24.42;26.03
69187;BME280;56301;56.864;60.554;2023-02-13T11:38:28;98588.13;;;24.41;26.18
69187;BME280;56301;56.864;60.554;2023-02-13T11:40:52;98592.84;;;24.39;25.62
69187;BME280;56301;56.864;60.554;2023-02-13T11:43:58;98586.59;;;24.38;25.90
69187;BME280;56301;56.864;60.554;2023-02-13T11:48:35;98588.00;;;24.34;26.05
69187;BME280;56301;56.864;60.554;2023-02-13T11:50:58;98588.16;;;24.33;25.69
69187;BME280;56301;56.864;60.554;2023-02-13T11:53:22;98578.59;;;24.30;25.91
69187;BME280;56301;56.864;60.554;2023-02-13T11:55:45;98579.97;;;24.26;25.73
69187;BME280;56301;56.864;60.554;2023-02-13T11:58:23;98583.53;;;24.26;26.21
69187;BME280;56301;56.864;60.554;2023-02-13T12:00:45;98575.78;;;24.23;26.25
69187;BME280;56301;56.864;60.554;2023-02-13T12:05:54;98579.53;;;24.22;26.22
69187;BME280;56301;56.864;60.554;2023-02-13T12:08:20;98573.44;;;24.20;25.79
69187;BME280;56301;56.864;60.554;2023-02-13T12:10:43;98577.19;;;24.19;25.89
69187;BME280;56301;56.864;60.554;2023-02-13T12:13:24;98584.63;;;24.17;25.95
69187;BME280;56301;56.864;60.554;2023-02-13T12:15:47;98570.47;;;24.15;26.00
69187;BME280;56301;56.864;60.554;2023-02-13T12:23:26;98574.56;;;24.11;26.18
69187;BME280;56301;56.864;60.554;2023-02-13T12:28:15;98574.94;;;24.08;26.16
69187;BME280;56301;56.864;60.554;2023-02-13T12:43:24;98572.94;;;24.02;26.05
69187;BME280;56301;56.864;60.554;2023-02-13T12:55:32;98559.06;;;24.05;26.47
69187;BME280;56301;56.864;60.554;2023-02-13T13:03:04;98563.75;;;24.26;26.43
69187;BME280;56301;56.864;60.554;2023-02-13T13:05:36;98570.28;;;24.32;27.06
69187;BME280;56301;56.864;60.554;2023-02-13T13:08:13;98574.28;;;24.36;25.96
69187;BME280;56301;56.864;60.554;2023-02-13T13:23:22;98563.50;;;24.50;26.16
69187;BME280;56301;56.864;60.554;2023-02-13T13:26:04;98564.16;;;24.53;26.21
69187;BME280;56301;56.864;60.554;2023-02-13T13:28:42;98558.56;;;24.54;26.52
69187;BME280;56301;56.864;60.554;2023-02-13T13:31:05;98565.66;;;24.55;26.65
69187;BME280;56301;56.864;60.554;2023-02-13T13:33:28;98560.25;;;24.55;26.69
69187;BME280;56301;56.864;60.554;2023-02-13T13:35:54;98560.44;;;24.54;26.79
69187;BME280;56301;56.864;60.554;2023-02-13T13:38:41;98566.03;;;24.52;26.86
69187;BME280;56301;56.864;60.554;2023-02-13T13:41:14;98563.31;;;24.52;26.56
69187;BME280;56301;56.864;60.554;2023-02-13T13:43:41;98569.78;;;24.51;26.08
69187;BME280;56301;56.864;60.554;2023-02-13T13:50:57;98573.00;;;24.46;26.48
69187;BME280;56301;56.864;60.554;2023-02-13T13:53:20;98571.34;;;24.45;26.54
69187;BME280;56301;56.864;60.554;2023-02-13T13:58:17;98569.00;;;24.42;26.15
69187;BME280;56301;56.864;60.554;2023-02-13T14:00:41;98568.38;;;24.40;26.35
69187;BME280;56301;56.864;60.554;2023-02-13T14:03:23;98575.63;;;24.40;25.81
69187;BME280;56301;56.864;60.554;2023-02-13T14:06:02;98570.38;;;24.38;26.19
69187;BME280;56301;56.864;60.554;2023-02-13T14:13:38;98569.91;;;24.35;27.00
69187;BME280;56301;56.864;60.554;2023-02-13T14:16:01;98580.53;;;24.36;26.39
69187;BME280;56301;56.864;60.554;2023-02-13T14:18:24;98583.44;;;24.35;26.65
69187;BME280;56301;56.864;60.554;2023-02-13T14:25:48;98579.06;;;24.34;26.30
69187;BME280;56301;56.864;60.554;2023-02-13T14:28:18;98577.34;;;24.33;26.36
69187;BME280;56301;56.864;60.554;2023-02-13T14:30:42;98570.28;;;24.32;25.83
69187;BME280;56301;56.864;60.554;2023-02-13T14:33:04;98572.16;;;24.31;26.62
69187;BME280;56301;56.864;60.554;2023-02-13T14:35:29;98573.19;;;24.30;26.65
69187;BME280;56301;56.864;60.554;2023-02-13T14:38:02;98570.66;;;24.29;25.94
69187;BME280;56301;56.864;60.554;2023-02-13T14:40:30;98572.34;;;24.30;26.55
69187;BME280;56301;56.864;60.554;2023-02-13T14:42:53;98569.81;;;24.28;26.47
69187;BME280;56301;56.864;60.554;2023-02-13T14:45:17;98570.66;;;24.29;26.47
69187;BME280;56301;56.864;60.554;2023-02-13T14:47:42;98566.06;;;24.29;26.12
69187;BME280;56301;56.864;60.554;2023-02-13T14:50:07;98569.34;;;24.24;26.22
69187;BME280;56301;56.864;60.554;2023-02-13T14:52:38;98566.06;;;24.29;26.52
69187;BME280;56301;56.864;60.554;2023-02-13T14:55:07;98566.13;;;24.44;26.76
69187;BME280;56301;56.864;60.554;2023-02-13T14:57:37;98558.19;;;24.57;26.93
69187;BME280;56301;56.864;60.554;2023-02-13T15:00:04;98556.28;;;24.72;27.59
69187;BME280;56301;56.864;60.554;2023-02-13T15:02:30;98554.59;;;24.86;27.64
69187;BME280;56301;56.864;60.554;2023-02-13T15:04:55;98551.59;;;24.96;27.88
69187;BME280;56301;56.864;60.554;2023-02-13T15:07:19;98558.56;;;25.05;27.56
69187;BME280;56301;56.864;60.554;2023-02-13T15:09:50;98555.47;;;25.08;28.27